Time;durP1;ratioP1;P1;durP2;ratioP2;P2;SDS_P1;SDS_P2;PMS_P1;PMS_P2;Temp;Humidity;BMP_temperature;BMP_pressure;BME280_temperature;BME280_humidity;BME280_pressure;Samples;Min_cycle;Max_cycle;Signal;HPM_P1;HPM_P2
2023/01/19 00:01:23;;;;;;;18.33;11.00;;;2.10;99.90;;;;;;5055588;28;20463;-82
2023/01/19 00:03:49;;;;;;;14.07;10.60;;;2.20;99.90;;;;;;5037564;28;20049;-82
2023/01/19 00:06:15;;;;;;;13.07;8.63;;;2.10;99.90;;;;;;5054833;28;20462;-81
2023/01/19 00:08:43;;;;;;;15.88;9.13;;;2.20;99.90;;;;;;5055297;28;20048;-81
2023/01/19 00:11:09;;;;;;;12.60;8.88;;;2.20;99.90;;;;;;5037466;28;20055;-83
2023/01/19 00:13:35;;;;;;;12.63;8.30;;;2.20;99.90;;;;;;5021127;28;20084;-81
2023/01/19 00:16:01;;;;;;;10.25;8.02;;;2.10;99.90;;;;;;5037858;28;20432;-82
2023/01/19 00:18:27;;;;;;;10.13;7.90;;;2.10;99.90;;;;;;5054962;28;20040;-82
2023/01/19 00:20:53;;;;;;;11.15;8.13;;;2.10;99.90;;;;;;5037108;28;20120;-82
2023/01/19 00:23:19;;;;;;;10.43;8.45;;;2.20;99.90;;;;;;5037486;28;20134;-82
2023/01/19 00:25:46;;;;;;;9.25;7.50;;;2.10;99.90;;;;;;5054972;28;20056;-81
2023/01/19 00:28:15;;;;;;;11.93;7.82;;;2.10;99.90;;;;;;5037101;28;20529;-81
2023/01/19 00:30:41;;;;;;;9.13;7.10;;;2.10;99.90;;;;;;5037133;28;20049;-82
2023/01/19 00:33:08;;;;;;;8.68;7.15;;;2.10;99.90;;;;;;5020764;28;20051;-81
2023/01/19 00:35:34;;;;;;;9.43;7.57;;;2.10;99.90;;;;;;5020547;28;20049;-80
2023/01/19 00:38:01;;;;;;;9.80;7.43;;;2.10;99.90;;;;;;5054423;28;20448;-82
2023/01/19 00:40:27;;;;;;;10.13;7.22;;;2.00;99.90;;;;;;5036828;28;20048;-81
2023/01/19 00:42:53;;;;;;;8.85;6.85;;;2.00;99.90;;;;;;5036920;28;20071;-81
2023/01/19 00:45:20;;;;;;;9.02;6.85;;;2.00;99.90;;;;;;5036828;28;20437;-81
2023/01/19 00:47:49;;;;;;;7.30;6.25;;;2.00;99.90;;;;;;5036913;28;20517;-81
2023/01/19 00:50:15;;;;;;;7.45;6.07;;;2.20;99.90;;;;;;5054450;28;20051;-82
2023/01/19 00:52:42;;;;;;;7.95;6.00;;;2.00;99.90;;;;;;5054414;28;20061;-82
2023/01/19 00:55:11;;;;;;;8.13;5.75;;;2.00;99.90;;;;;;5054312;28;20048;-81
2023/01/19 00:57:37;;;;;;;8.82;6.03;;;2.40;99.90;;;;;;5036670;28;20049;-81
2023/01/19 01:00:06;;;;;;;8.43;6.05;;;2.00;99.90;;;;;;5036719;28;20095;-82
2023/01/19 01:02:32;;;;;;;7.53;5.70;;;1.90;99.90;;;;;;5036648;28;20048;-81
2023/01/19 01:05:01;;;;;;;7.97;6.68;;;2.20;99.90;;;;;;5036313;28;20041;-81
2023/01/19 01:07:28;;;;;;;7.88;6.57;;;2.40;99.90;;;;;;5054049;28;20048;-82
2023/01/19 01:09:55;;;;;;;7.78;6.63;;;1.90;99.90;;;;;;5036361;28;20106;-81
2023/01/19 01:12:22;;;;;;;10.57;7.03;;;1.90;99.90;;;;;;5054088;28;20124;-82
2023/01/19 01:14:47;;;;;;;10.05;7.40;;;1.90;99.90;;;;;;5036491;28;20370;-81
2023/01/19 01:17:13;;;;;;;9.98;8.25;;;1.90;99.90;;;;;;5053098;28;20045;-81
2023/01/19 01:19:40;;;;;;;11.23;8.27;;;2.10;99.90;;;;;;5054175;28;20041;-81
2023/01/19 01:22:06;;;;;;;;;;;1.80;99.90;;;;;;5036787;28;20045;-82
2023/01/19 01:24:32;;;;;;;11.52;9.15;;;1.80;99.90;;;;;;5053687;28;19947;-82
2023/01/19 01:26:57;;;;;;;12.48;9.82;;;1.80;99.90;;;;;;5036254;28;20060;-82
2023/01/19 01:29:23;;;;;;;13.48;10.57;;;1.80;99.90;;;;;;5036409;28;20053;-82
2023/01/19 01:31:49;;;;;;;13.13;9.73;;;1.70;99.90;;;;;;5053643;28;20084;-82
2023/01/19 01:34:15;;;;;;;13.82;10.60;;;1.70;99.90;;;;;;5053446;28;20139;-82
2023/01/19 01:36:41;;;;;;;12.15;9.85;;;2.00;99.90;;;;;;5019498;28;20060;-81
2023/01/19 01:39:07;;;;;;;13.30;11.13;;;2.20;99.90;;;;;;5019633;28;20053;-81
2023/01/19 01:41:33;;;;;;;16.75;11.15;;;1.70;99.90;;;;;;5053640;28;20040;-81
2023/01/19 01:44:00;;;;;;;14.07;10.90;;;1.70;99.90;;;;;;5019764;28;20110;-81
2023/01/19 01:46:28;;;;;;;14.13;11.18;;;1.70;99.90;;;;;;5019509;28;20099;-80
2023/01/19 01:49:14;;;;;;;14.90;11.52;;;1.70;99.90;;;;;;5053532;28;20407;-81
2023/01/19 01:51:46;;;;;;;14.32;10.75;;;1.70;99.90;;;;;;5053214;28;20549;-81
2023/01/19 01:54:29;;;;;;;16.95;11.88;;;1.70;99.90;;;;;;5019803;28;20037;-81
2023/01/19 01:57:01;;;;;;;18.42;12.73;;;1.70;99.90;;;;;;5053369;28;20079;-81
2023/01/19 01:59:37;;;;;;;17.20;11.77;;;1.70;99.90;;;;;;5036309;28;20041;-81
2023/01/19 02:05:15;;;;;;;17.00;11.95;;;1.70;99.90;;;;;;5053817;28;20128;-82
2023/01/19 02:13:50;;;;;;;16.17;11.90;;;1.70;99.90;;;;;;5035883;28;20084;-82
2023/01/19 02:16:16;;;;;;;17.25;12.35;;;2.50;99.90;;;;;;5035859;28;20072;-82
2023/01/19 02:18:44;;;;;;;18.08;12.70;;;1.70;99.90;;;;;;5053050;28;20098;-82
2023/01/19 02:21:35;;;;;;;17.08;12.00;;;1.70;99.90;;;;;;5053200;28;20044;-81
2023/01/19 02:24:01;;;;;;;16.75;12.10;;;1.70;99.90;;;;;;5053145;28;20041;-82
2023/01/19 02:26:39;;;;;;;18.25;12.20;;;1.70;99.90;;;;;;5035504;28;20052;-82
2023/01/19 02:29:08;;;;;;;19.30;12.48;;;1.80;99.90;;;;;;5054832;28;20124;-82
2023/01/19 02:31:36;;;;;;;15.90;12.23;;;1.80;99.90;;;;;;5057294;28;20474;-81
2023/01/19 02:34:03;;;;;;;17.30;12.30;;;1.80;99.90;;;;;;5039615;28;20045;-81
2023/01/19 02:36:50;;;;;;;18.98;12.90;;;1.80;99.90;;;;;;5056923;28;20385;-82
2023/01/19 02:39:20;;;;;;;19.05;13.57;;;1.80;99.90;;;;;;5056939;28;20056;-81
2023/01/19 02:41:51;;;;;;;18.05;12.52;;;1.80;99.90;;;;;;5022911;28;20107;-82
2023/01/19 02:44:18;;;;;;;18.58;12.68;;;1.80;99.90;;;;;;5056850;28;20124;-82
2023/01/19 02:46:44;;;;;;;15.80;12.02;;;1.80;99.90;;;;;;5056676;28;20088;-83
2023/01/19 02:49:09;;;;;;;17.58;11.90;;;1.80;99.90;;;;;;5039207;28;20080;-82
2023/01/19 02:51:35;;;;;;;19.45;12.98;;;1.90;99.90;;;;;;5056732;28;20041;-81
2023/01/19 02:54:21;;;;;;;18.23;13.13;;;1.80;99.90;;;;;;5056435;28;20067;-81
2023/01/19 02:57:06;;;;;;;18.67;12.73;;;1.80;99.90;;;;;;5039203;28;20041;-81
2023/01/19 02:59:43;;;;;;;17.10;12.95;;;1.80;99.90;;;;;;5038918;28;20056;-82
2023/01/19 03:02:27;;;;;;;18.15;12.73;;;1.80;99.90;;;;;;5022738;28;20076;-82
2023/01/19 03:05:09;;;;;;;19.48;14.00;;;1.90;99.90;;;;;;5056794;28;20099;-81
2023/01/19 03:07:47;;;;;;;21.52;14.57;;;1.90;99.90;;;;;;5056308;28;20374;-80
2023/01/19 03:10:46;;;;;;;18.92;14.32;;;1.90;99.90;;;;;;5038843;28;20041;-82
2023/01/19 03:13:30;;;;;;;20.25;15.43;;;1.80;99.90;;;;;;5038593;28;20041;-83
2023/01/19 03:16:15;;;;;;;21.45;15.75;;;1.90;99.90;;;;;;5038389;28;20057;-82
2023/01/19 03:18:45;;;;;;;24.65;15.85;;;1.90;99.90;;;;;;5038336;28;20049;-81
2023/01/19 03:21:12;;;;;;;24.23;17.00;;;1.90;99.90;;;;;;5056531;28;20131;-82
2023/01/19 03:23:42;;;;;;;24.75;16.17;;;1.90;99.90;;;;;;5056110;28;20056;-80
2023/01/19 03:26:12;;;;;;;22.77;15.95;;;1.90;99.90;;;;;;5055911;28;20084;-80
2023/01/19 03:28:41;;;;;;;21.10;14.50;;;1.90;99.90;;;;;;5038698;28;20091;-81
2023/01/19 03:31:16;;;;;;;25.90;15.60;;;2.80;99.90;;;;;;5038278;28;20378;-81
2023/01/19 03:33:48;;;;;;;21.98;15.70;;;2.00;99.90;;;;;;5038581;28;20033;-80
2023/01/19 03:36:20;;;;;;;22.45;15.23;;;1.90;99.90;;;;;;5055686;28;20041;-81
2023/01/19 03:38:48;;;;;;;22.92;15.00;;;1.90;99.90;;;;;;5056049;28;20150;-81
2023/01/19 03:41:17;;;;;;;21.48;14.82;;;1.90;99.90;;;;;;5037083;28;20045;-81
2023/01/19 03:43:45;;;;;;;21.98;14.43;;;2.00;99.90;;;;;;5055569;28;20045;-81
2023/01/19 03:46:15;;;;;;;20.60;14.30;;;2.00;99.90;;;;;;5055403;28;20508;-81
2023/01/19 03:48:41;;;;;;;20.83;14.20;;;2.00;99.90;;;;;;5038086;28;20053;-81
2023/01/19 03:51:09;;;;;;;21.75;14.23;;;1.90;99.90;;;;;;5037962;28;20481;-82
2023/01/19 03:53:35;;;;;;;19.52;13.35;;;2.00;99.90;;;;;;5055556;28;20066;-81
2023/01/19 03:56:01;;;;;;;20.23;13.70;;;2.00;99.90;;;;;;5037870;28;20161;-82
2023/01/19 03:58:27;;;;;;;21.05;14.32;;;1.90;99.90;;;;;;5037534;28;20067;-81
2023/01/19 04:00:52;;;;;;;18.17;13.07;;;1.90;99.90;;;;;;5037619;28;20047;-81
2023/01/19 04:03:18;;;;;;;19.38;13.20;;;1.90;99.90;;;;;;5055748;28;20045;-81
2023/01/19 04:05:44;;;;;;;18.50;11.95;;;1.90;99.90;;;;;;5055651;28;20056;-81
2023/01/19 04:08:10;;;;;;;18.67;12.40;;;2.50;99.90;;;;;;5055161;28;20477;-81
2023/01/19 04:10:36;;;;;;;20.90;13.48;;;1.90;99.90;;;;;;5037453;28;20419;-82
2023/01/19 04:13:02;;;;;;;17.10;12.00;;;2.40;99.90;;;;;;5037374;28;20048;-81
2023/01/19 04:15:29;;;;;;;18.00;12.18;;;1.90;99.90;;;;;;5037639;28;20055;-80
2023/01/19 04:18:01;;;;;;;17.65;12.13;;;1.90;99.90;;;;;;5055261;28;20465;-81
2023/01/19 04:20:27;;;;;;;17.85;11.95;;;2.40;99.90;;;;;;5055217;28;20106;-80
2023/01/19 04:22:54;;;;;;;18.02;11.05;;;1.90;99.90;;;;;;5037518;28;20037;-81
2023/01/19 04:25:21;;;;;;;16.42;11.77;;;1.90;99.90;;;;;;5037349;28;20045;-80
2023/01/19 04:27:50;;;;;;;13.60;10.20;;;1.90;99.90;;;;;;5036949;28;20045;-81
2023/01/19 04:30:16;;;;;;;14.30;9.82;;;1.90;99.90;;;;;;5037443;28;20064;-81
2023/01/19 04:32:43;;;;;;;12.32;9.82;;;1.90;99.90;;;;;;5054804;28;20037;-81
2023/01/19 04:35:08;;;;;;;12.43;9.82;;;1.80;99.90;;;;;;5020607;28;20053;-81
2023/01/19 04:37:34;;;;;;;12.65;9.38;;;1.90;99.90;;;;;;5054905;28;20045;-81
2023/01/19 04:39:59;;;;;;;13.13;9.18;;;1.80;99.90;;;;;;5020593;28;20405;-81
2023/01/19 04:42:26;;;;;;;12.90;9.02;;;1.80;99.90;;;;;;5055103;28;20100;-81
2023/01/19 04:44:52;;;;;;;11.35;8.80;;;1.80;99.90;;;;;;5036972;28;20044;-80
2023/01/19 04:47:18;;;;;;;12.77;9.40;;;1.80;99.90;;;;;;5054568;28;20408;-81
2023/01/19 04:49:44;;;;;;;12.13;8.10;;;1.80;99.90;;;;;;5037001;28;20052;-81
2023/01/19 04:52:10;;;;;;;12.80;8.65;;;2.70;99.90;;;;;;5054339;28;20037;-81
2023/01/19 04:54:36;;;;;;;10.30;8.25;;;1.90;99.90;;;;;;5054109;28;20057;-81
2023/01/19 04:57:01;;;;;;;10.15;7.95;;;1.80;99.90;;;;;;5020967;28;20084;-81
2023/01/19 04:59:27;;;;;;;10.80;7.90;;;1.80;99.90;;;;;;5054312;28;20094;-82
2023/01/19 05:01:53;;;;;;;10.18;8.20;;;1.80;99.90;;;;;;5054589;28;20088;-81
2023/01/19 05:04:18;;;;;;;10.88;7.45;;;1.80;99.90;;;;;;5054197;28;20040;-82
2023/01/19 05:06:44;;;;;;;10.10;7.38;;;1.80;99.90;;;;;;5020541;28;20041;-80
2023/01/19 05:09:12;;;;;;;11.70;8.20;;;1.70;99.90;;;;;;5054159;28;20041;-80
2023/01/19 05:11:38;;;;;;;12.40;8.70;;;1.70;99.90;;;;;;5054026;28;20057;-82
2023/01/19 05:14:04;;;;;;;10.77;8.30;;;1.70;99.90;;;;;;5054041;28;20175;-81
2023/01/19 05:16:29;;;;;;;12.55;8.65;;;2.30;99.90;;;;;;5020321;28;20056;-81
2023/01/19 05:18:55;;;;;;;13.65;9.13;;;1.70;99.90;;;;;;5036216;28;20066;-81
2023/01/19 05:21:21;;;;;;;14.55;9.35;;;1.60;99.90;;;;;;5036367;28;20385;-82
2023/01/19 05:23:46;;;;;;;15.35;9.10;;;1.60;99.90;;;;;;5020059;28;20045;-80
2023/01/19 05:26:12;;;;;;;13.07;9.00;;;2.20;99.90;;;;;;5035819;28;20071;-81
2023/01/19 05:28:38;;;;;;;16.15;9.13;;;1.60;99.90;;;;;;5036098;28;20040;-81
2023/01/19 05:31:04;;;;;;;13.93;9.45;;;2.00;99.90;;;;;;5053502;28;20037;-81
2023/01/19 05:33:29;;;;;;;14.25;9.32;;;1.70;99.90;;;;;;5053614;28;20041;-81
2023/01/19 05:35:55;;;;;;;14.10;9.70;;;2.30;99.90;;;;;;5036127;28;20041;-81
2023/01/19 05:38:22;;;;;;;14.55;9.43;;;1.80;99.90;;;;;;5035359;28;20053;-81
2023/01/19 05:40:47;;;;;;;15.68;8.95;;;1.80;99.90;;;;;;5036060;28;20052;-81
2023/01/19 05:43:14;;;;;;;14.30;9.20;;;1.80;99.90;;;;;;5053555;28;20045;-81
2023/01/19 05:45:40;;;;;;;12.30;8.88;;;2.00;99.90;;;;;;5053415;28;20041;-81
2023/01/19 05:48:07;;;;;;;15.73;9.23;;;1.90;99.90;;;;;;5036294;28;20055;-81
2023/01/19 05:50:33;;;;;;;16.13;9.13;;;1.90;99.90;;;;;;5053489;28;20049;-81
2023/01/19 05:53:00;;;;;;;13.05;9.05;;;1.90;99.90;;;;;;5035487;28;20397;-82
2023/01/19 05:55:26;;;;;;;13.10;8.95;;;2.00;99.90;;;;;;5042759;28;20049;-81
2023/01/19 05:57:51;;;;;;;12.98;8.18;;;2.00;99.90;;;;;;5033411;28;20128;-81
2023/01/19 06:00:18;;;;;;;12.98;8.07;;;2.00;99.90;;;;;;5015914;28;20128;-81
2023/01/19 06:02:43;;;;;;;16.27;8.40;;;2.10;99.90;;;;;;5015958;28;20042;-81
2023/01/19 06:05:09;;;;;;;15.43;7.65;;;2.10;99.90;;;;;;5039284;28;20280;-82
2023/01/19 06:07:35;;;;;;;15.27;8.45;;;2.10;99.90;;;;;;5022480;28;20096;-82
2023/01/19 06:10:00;;;;;;;14.65;7.85;;;2.20;99.90;;;;;;5022375;28;20052;-81
2023/01/19 06:12:26;;;;;;;12.32;7.55;;;2.20;99.90;;;;;;5039922;28;20464;-81
2023/01/19 06:14:52;;;;;;;11.90;7.20;;;2.20;99.90;;;;;;5040045;28;20055;-81
2023/01/19 06:17:17;;;;;;;14.13;8.13;;;2.20;99.90;;;;;;5039792;28;20081;-82
2023/01/19 06:19:43;;;;;;;10.52;5.93;;;2.30;99.90;;;;;;5039946;28;20041;-81
2023/01/19 06:22:09;;;;;;;17.10;6.65;;;2.30;99.90;;;;;;5021976;28;20100;-82
2023/01/19 06:24:34;;;;;;;9.65;5.60;;;2.40;99.90;;;;;;5022505;28;20045;-83
2023/01/19 06:27:00;;;;;;;12.15;5.82;;;2.30;99.90;;;;;;5022637;28;20041;-84
2023/01/19 06:29:26;;;;;;;11.07;5.68;;;2.30;99.90;;;;;;5022130;28;20466;-84
2023/01/19 06:31:52;;;;;;;13.52;5.60;;;2.60;99.90;;;;;;5005921;28;20099;-81
2023/01/19 06:34:18;;;;;;;11.38;5.03;;;2.30;99.90;;;;;;5021780;28;20041;-81
2023/01/19 06:36:45;;;;;;;9.27;4.30;;;2.30;99.90;;;;;;5039599;28;20417;-81
2023/01/19 06:39:10;;;;;;;14.25;4.55;;;2.30;99.90;;;;;;5021823;28;20448;-81
2023/01/19 06:41:37;;;;;;;8.10;3.88;;;2.30;99.90;;;;;;5039634;28;20136;-81
2023/01/19 06:44:04;;;;;;;6.43;4.28;;;2.20;99.90;;;;;;5022028;28;20041;-82
2023/01/19 06:46:30;;;;;;;6.95;3.72;;;2.30;99.90;;;;;;5022324;28;20056;-82
2023/01/19 06:48:55;;;;;;;8.27;3.67;;;2.20;99.90;;;;;;5022078;28;20045;-81
2023/01/19 06:51:22;;;;;;;8.35;3.88;;;2.30;99.90;;;;;;5040214;28;20088;-81
2023/01/19 06:53:48;;;;;;;9.35;3.97;;;2.30;99.90;;;;;;5039429;28;20045;-81
2023/01/19 06:56:14;;;;;;;6.97;3.47;;;2.20;99.90;;;;;;5021768;28;20492;-82
2023/01/19 06:58:41;;;;;;;10.05;2.85;;;2.20;99.90;;;;;;5021745;28;20091;-81
2023/01/19 07:01:07;;;;;;;6.60;3.20;;;2.20;99.90;;;;;;5039444;28;20085;-81
2023/01/19 07:03:34;;;;;;;8.45;3.10;;;2.20;99.90;;;;;;5039379;28;20128;-81
2023/01/19 07:06:05;;;;;;;8.27;2.85;;;2.20;99.90;;;;;;5039168;28;20549;-81
2023/01/19 07:08:31;;;;;;;9.45;2.97;;;2.20;99.90;;;;;;5021959;28;20060;-81
2023/01/19 07:11:10;;;;;;;8.83;3.20;;;2.20;99.90;;;;;;5016996;28;20443;-81
2023/01/19 07:13:38;;;;;;;8.13;2.75;;;2.20;99.90;;;;;;5010653;28;20049;-81
2023/01/19 07:16:09;;;;;;;6.68;2.67;;;2.10;99.90;;;;;;5015945;28;20084;-82
2023/01/19 07:18:36;;;;;;;7.30;2.80;;;2.10;99.90;;;;;;5016248;28;20038;-81
2023/01/19 07:21:03;;;;;;;12.43;2.70;;;2.10;99.90;;;;;;4998730;28;20481;-81
2023/01/19 07:23:29;;;;;;;5.88;2.75;;;2.30;99.90;;;;;;5016190;28;20050;-84
2023/01/19 07:26:02;;;;;;;5.60;2.30;;;2.20;99.90;;;;;;4992538;28;20049;-81
2023/01/19 07:28:31;;;;;;;7.68;2.45;;;2.10;99.90;;;;;;5027426;28;20061;-87
2023/01/19 07:31:00;;;;;;;4.95;2.20;;;2.10;99.90;;;;;;5010948;28;20072;-83
2023/01/19 07:33:29;;;;;;;7.88;2.20;;;2.20;99.90;;;;;;5011245;28;20072;-85
2023/01/19 07:35:54;;;;;;;7.97;2.28;;;3.40;99.90;;;;;;4991045;28;20506;-81
2023/01/19 07:38:20;;;;;;;6.30;2.25;;;2.40;99.90;;;;;;5016039;28;20092;-85
2023/01/19 07:40:46;;;;;;;6.53;2.28;;;2.20;99.90;;;;;;4998149;28;20049;-81
2023/01/19 07:43:12;;;;;;;13.32;2.33;;;2.20;99.90;;;;;;4995535;28;20095;-79
2023/01/19 07:45:38;;;;;;;2.70;1.97;;;2.20;99.90;;;;;;5035589;28;20049;-82
2023/01/19 07:48:04;;;;;;;6.20;1.92;;;2.30;99.90;;;;;;5001807;28;20302;-79
2023/01/19 07:50:30;;;;;;;3.05;2.38;;;2.30;99.90;;;;;;5035575;28;20045;-81
2023/01/19 07:52:55;;;;;;;6.32;2.08;;;2.40;99.90;;;;;;5035479;28;20095;-85
2023/01/19 07:55:22;;;;;;;3.83;2.00;;;2.40;99.90;;;;;;5001453;28;20401;-82
2023/01/19 07:57:52;;;;;;;4.93;2.13;;;2.50;99.90;;;;;;5017730;28;20041;-85
2023/01/19 08:00:23;;;;;;;10.77;2.20;;;2.80;99.90;;;;;;5018068;28;20056;-82
2023/01/19 08:02:50;;;;;;;7.90;2.20;;;2.60;99.90;;;;;;5017823;28;20493;-84
2023/01/19 08:05:17;;;;;;;;;;;2.70;99.90;;;;;;5000392;28;20059;-82
2023/01/19 08:07:45;;;;;;;11.07;2.30;;;3.70;99.90;;;;;;5035275;28;19927;-86
2023/01/19 08:10:14;;;;;;;8.43;2.30;;;2.70;99.90;;;;;;5016809;28;20288;-81
2023/01/19 08:12:41;;;;;;;7.57;2.15;;;2.70;99.90;;;;;;5016846;28;20080;-83
2023/01/19 08:15:10;;;;;;;10.00;2.55;;;2.70;99.90;;;;;;5017408;28;20046;-84
2023/01/19 08:17:36;;;;;;;8.00;2.40;;;2.70;99.90;;;;;;5001158;28;20041;-84
2023/01/19 08:20:02;;;;;;;7.55;2.15;;;2.70;99.90;;;;;;5017400;28;20050;-84
2023/01/19 08:22:28;;;;;;;10.27;2.60;;;2.70;99.90;;;;;;5033713;28;20044;-80
2023/01/19 08:24:53;;;;;;;7.72;2.20;;;2.70;99.90;;;;;;5034546;28;20482;-80
2023/01/19 08:27:20;;;;;;;8.82;2.53;;;2.80;99.90;;;;;;5017391;28;20049;-84
2023/01/19 08:29:45;;;;;;;8.90;2.10;;;2.80;99.90;;;;;;5001296;28;20136;-84
2023/01/19 08:32:11;;;;;;;6.00;2.40;;;2.80;99.90;;;;;;5016966;28;20085;-83
2023/01/19 08:34:37;;;;;;;11.48;2.45;;;2.80;99.90;;;;;;5001140;28;20517;-85
2023/01/19 08:37:02;;;;;;;13.82;2.22;;;2.70;99.90;;;;;;5034097;28;20481;-83
2023/01/19 08:39:28;;;;;;;15.70;2.58;;;2.70;99.90;;;;;;5017264;28;20053;-83
2023/01/19 08:41:55;;;;;;;11.75;2.42;;;2.70;99.90;;;;;;5034024;28;20470;-81
2023/01/19 08:44:20;;;;;;;10.70;2.23;;;2.70;99.90;;;;;;5036518;28;20053;-83
2023/01/19 08:46:46;;;;;;;7.55;2.33;;;2.70;99.90;;;;;;5054139;28;20082;-82
2023/01/19 08:49:12;;;;;;;6.95;2.30;;;2.60;99.90;;;;;;5054520;28;20037;-84
2023/01/19 08:51:37;;;;;;;16.90;2.72;;;2.60;99.90;;;;;;5020150;28;20510;-84
2023/01/19 08:54:04;;;;;;;14.45;2.90;;;;;;;;;;5036611;28;20127;-83
2023/01/19 08:56:30;;;;;;;12.30;2.92;;;2.60;99.90;;;;;;5054111;28;20049;-83
2023/01/19 08:58:56;;;;;;;9.52;2.50;;;2.60;99.90;;;;;;5019850;28;20045;-88
2023/01/19 09:01:22;;;;;;;14.48;2.88;;;2.60;99.90;;;;;;5036357;28;20037;-84
2023/01/19 09:03:48;;;;;;;13.07;2.72;;;3.10;99.90;;;;;;5054189;28;20099;-84
2023/01/19 09:06:18;;;;;;;7.25;2.10;;;2.70;99.90;;;;;;5053579;28;20052;-84
2023/01/19 09:08:44;;;;;;;13.10;2.78;;;2.70;99.90;;;;;;5020384;28;20481;-84
2023/01/19 09:11:13;;;;;;;12.93;2.80;;;2.70;99.90;;;;;;5036295;28;20370;-85
2023/01/19 09:13:40;;;;;;;10.73;2.30;;;2.80;99.90;;;;;;5053965;28;20037;-85
2023/01/19 09:16:06;;;;;;;13.10;2.95;;;3.80;99.90;;;;;;5053486;28;20049;-83
2023/01/19 09:18:33;;;;;;;5.88;2.67;;;2.90;99.90;;;;;;5054265;28;20366;-84
2023/01/19 09:21:00;;;;;;;10.40;2.67;;;2.60;99.90;;;;;;5036502;28;20052;-89
2023/01/19 09:23:25;;;;;;;11.23;2.67;;;3.10;99.90;;;;;;5020149;28;20084;-87
2023/01/19 09:25:57;;;;;;;12.20;3.22;;;3.20;99.90;;;;;;5036315;28;20087;-89
2023/01/19 09:28:22;;;;;;;9.38;2.72;;;3.80;99.90;;;;;;5054025;28;20045;-83
2023/01/19 09:30:48;;;;;;;10.20;2.65;;;3.30;99.90;;;;;;5053147;28;20401;-85
2023/01/19 09:33:15;;;;;;;12.80;2.88;;;3.40;99.90;;;;;;5053853;28;20127;-86
2023/01/19 09:35:41;;;;;;;;;;;3.50;99.90;;;;;;5019841;28;20071;-91
2023/01/19 09:38:09;;;;;;;13.75;2.63;;;3.50;99.90;;;;;;5018333;28;19946;-88
2023/01/19 09:40:40;;;;;;;14.68;2.70;;;3.60;99.90;;;;;;5019451;28;20053;-85
2023/01/19 09:43:36;;;;;;;10.88;2.33;;;3.60;99.90;;;;;;5019362;28;20045;-85
2023/01/19 09:46:11;;;;;;;14.20;3.33;;;3.60;99.90;;;;;;4984487;28;20103;-84
2023/01/19 09:48:55;;;;;;;8.63;2.35;;;3.60;99.90;;;;;;5036048;28;20136;-84
2023/01/19 09:51:26;;;;;;;7.53;2.58;;;3.60;99.90;;;;;;5019154;28;20044;-86
2023/01/19 09:54:04;;;;;;;8.57;2.53;;;3.50;99.90;;;;;;5035738;28;20041;-88
2023/01/19 09:56:31;;;;;;;11.27;3.00;;;3.60;99.90;;;;;;5035897;28;20055;-86
2023/01/19 09:58:57;;;;;;;;;;;3.60;99.90;;;;;;5053999;28;20404;-86
2023/01/19 10:01:39;;;;;;;18.63;3.15;;;4.00;99.90;;;;;;5019159;28;19921;-89
2023/01/19 10:04:41;;;;;;;11.82;3.70;;;3.60;99.90;;;;;;5035417;28;20041;-85
2023/01/19 10:07:29;;;;;;;9.38;2.38;;;3.60;99.90;;;;;;5019166;28;20040;-84
2023/01/19 10:10:05;;;;;;;12.75;2.80;;;3.60;99.90;;;;;;5035765;28;20094;-86
2023/01/19 10:12:30;;;;;;;13.65;2.90;;;3.80;99.90;;;;;;5035509;28;20045;-86
2023/01/19 10:15:11;;;;;;;12.30;2.22;;;3.60;99.90;;;;;;5035740;28;20048;-88
2023/01/19 10:18:07;;;;;;;16.48;2.67;;;3.60;99.90;;;;;;5053051;28;20083;-83
2023/01/19 10:20:38;;;;;;;8.05;2.25;;;3.60;99.90;;;;;;5019175;28;20084;-85
2023/01/19 10:23:20;;;;;;;12.30;2.03;;;4.80;99.90;;;;;;5052788;28;20119;-85
2023/01/19 10:25:46;;;;;;;10.65;2.67;;;3.70;99.90;;;;;;5053270;28;20048;-86
2023/01/19 10:28:14;;;;;;;11.07;2.00;;;3.70;99.90;;;;;;5034240;28;20053;-85
2023/01/19 10:30:42;;;;;;;11.63;2.35;;;3.80;99.90;;;;;;5035132;28;20503;-86
2023/01/19 10:33:12;;;;;;;10.65;2.28;;;3.90;99.90;;;;;;5035700;28;20068;-86
2023/01/19 10:35:37;;;;;;;12.90;2.60;;;3.90;99.90;;;;;;5035567;28;20041;-85
2023/01/19 10:38:03;;;;;;;9.25;2.20;;;4.00;99.90;;;;;;5054149;28;20075;-84
2023/01/19 10:40:32;;;;;;;10.30;2.63;;;4.00;99.90;;;;;;5036189;28;20105;-88
2023/01/19 10:42:58;;;;;;;11.23;2.35;;;4.10;99.90;;;;;;5035598;28;20048;-82
2023/01/19 10:45:28;;;;;;;12.00;2.38;;;4.10;99.90;;;;;;5053088;28;20405;-82
2023/01/19 10:47:58;;;;;;;16.88;2.47;;;4.20;99.90;;;;;;5018973;28;20049;-82
2023/01/19 10:50:29;;;;;;;15.02;2.58;;;4.30;99.90;;;;;;5037394;28;20057;-83
2023/01/19 10:52:58;;;;;;;8.35;2.28;;;4.40;99.90;;;;;;5057159;28;20052;-83
2023/01/19 10:55:29;;;;;;;8.50;2.17;;;4.40;99.90;;;;;;5038996;28;20124;-84
2023/01/19 10:57:56;;;;;;;10.55;2.47;;;4.50;99.90;;;;;;5022318;28;20044;-84
2023/01/19 11:00:21;;;;;;;;;;;4.50;99.90;;;;;;5023056;28;20044;-83
2023/01/19 11:02:50;;;;;;;10.18;2.50;;;4.60;99.90;;;;;;5056389;28;20019;-83
2023/01/19 11:05:27;;;;;;;9.63;2.28;;;4.60;99.90;;;;;;5039490;28;20041;-86
2023/01/19 11:07:53;;;;;;;11.65;2.00;;;4.70;99.90;;;;;;5039031;28;20071;-82
2023/01/19 11:10:25;;;;;;;11.52;2.00;;;4.70;99.90;;;;;;5038874;28;20041;-81
2023/01/19 11:13:11;;;;;;;13.38;2.88;;;4.80;99.90;;;;;;5022343;28;20118;-84
2023/01/19 11:15:39;;;;;;;9.25;2.10;;;4.90;99.90;;;;;;5023000;28;20049;-80
2023/01/19 11:18:06;;;;;;;7.18;2.10;;;4.90;99.90;;;;;;5056122;28;20118;-80
2023/01/19 11:21:01;;;;;;;8.40;2.05;;;4.90;99.90;;;;;;5056283;28;20098;-81
2023/01/19 11:23:40;;;;;;;8.27;2.20;;;5.00;99.90;;;;;;5019947;28;20057;-80
2023/01/19 11:26:08;;;;;;;4.93;1.90;;;5.00;99.90;;;;;;5056152;28;20060;-82
2023/01/19 11:28:35;;;;;;;9.25;2.20;;;5.90;99.90;;;;;;5056100;28;20045;-81
2023/01/19 11:31:01;;;;;;;;;;;5.10;99.90;;;;;;5038780;28;20048;-81
2023/01/19 11:33:39;;;;;;;15.88;2.67;;;5.10;99.90;;;;;;5055978;28;19928;-81
2023/01/19 11:36:19;;;;;;;12.68;2.15;;;5.70;99.90;;;;;;5021610;28;20463;-83
2023/01/19 11:38:51;;;;;;;6.07;2.10;;;5.20;99.90;;;;;;5055708;28;20112;-83
2023/01/19 11:41:37;;;;;;;6.68;1.75;;;5.40;99.90;;;;;;5038464;28;20044;-83
2023/01/19 11:44:13;;;;;;;14.85;2.83;;;5.40;99.90;;;;;;5021911;28;20098;-81
2023/01/19 11:46:42;;;;;;;10.25;2.70;;;5.50;99.90;;;;;;5056093;28;20049;-81
2023/01/19 11:49:19;;;;;;;7.93;1.80;;;6.10;99.90;;;;;;5021509;28;20139;-82
2023/01/19 11:52:13;;;;;;;10.10;2.10;;;5.60;99.90;;;;;;5038328;28;20040;-83
2023/01/19 11:55:06;;;;;;;8.25;2.20;;;5.60;99.90;;;;;;5055147;28;20321;-84
2023/01/19 11:57:31;;;;;;;7.30;1.95;;;5.60;99.90;;;;;;5055750;28;20083;-82
2023/01/19 12:00:27;;;;;;;7.97;3.55;;;6.30;99.90;;;;;;5038211;28;20045;-82
2023/01/19 12:03:31;;;;;;;8.50;2.53;;;5.50;99.90;;;;;;5054653;28;20040;-83
2023/01/19 12:06:08;;;;;;;12.30;2.45;;;5.60;99.90;;;;;;5035145;28;20057;-82
2023/01/19 12:08:38;;;;;;;8.07;2.53;;;5.60;99.90;;;;;;5037767;28;20087;-82
2023/01/19 12:11:07;;;;;;;6.03;2.13;;;5.90;99.90;;;;;;5055252;28;20290;-81
2023/01/19 12:13:35;;;;;;;8.05;2.17;;;5.60;99.90;;;;;;5021297;28;20092;-86
2023/01/19 12:16:09;;;;;;;8.20;2.45;;;5.70;99.90;;;;;;5021081;28;20115;-82
2023/01/19 12:19:22;;;;;;;6.53;2.08;;;5.70;99.90;;;;;;5055620;28;20367;-82
2023/01/19 12:21:48;;;;;;;4.70;1.80;;;5.80;99.90;;;;;;5050187;28;20056;-82
2023/01/19 12:24:27;;;;;;;8.52;2.00;;;5.80;99.90;;;;;;5054998;28;20041;-83
2023/01/19 12:27:03;;;;;;;7.20;1.80;;;5.80;99.90;;;;;;5038116;28;20143;-82
2023/01/19 12:29:32;;;;;;;4.97;1.92;;;5.80;99.90;;;;;;5055618;28;20037;-82
2023/01/19 12:32:13;;;;;;;4.47;1.50;;;6.90;99.90;;;;;;5054997;28;20396;-81
2023/01/19 12:34:41;;;;;;;5.65;1.70;;;5.90;99.90;;;;;;5037202;28;20045;-82
2023/01/19 12:37:29;;;;;;;7.15;1.75;;;5.90;99.90;;;;;;5037098;28;20057;-81
2023/01/19 12:40:21;;;;;;;4.80;1.50;;;5.90;99.90;;;;;;5022329;28;20052;-81
2023/01/19 12:42:58;;;;;;;6.55;1.88;;;5.90;99.90;;;;;;5037713;28;20106;-81
2023/01/19 12:45:30;;;;;;;4.38;1.65;;;5.90;99.90;;;;;;5055110;28;20140;-81
2023/01/19 12:47:55;;;;;;;6.07;1.60;;;5.90;99.90;;;;;;5037748;28;20044;-81
2023/01/19 12:50:24;;;;;;;4.10;1.48;;;5.70;99.90;;;;;;5054690;28;20489;-81
2023/01/19 12:52:57;;;;;;;3.72;1.40;;;5.70;99.90;;;;;;5054570;28;20051;-81
2023/01/19 12:55:37;;;;;;;6.75;1.58;;;5.60;99.90;;;;;;5054808;28;20080;-82
2023/01/19 12:58:16;;;;;;;5.57;1.80;;;5.40;99.90;;;;;;5054544;28;20048;-82
2023/01/19 13:00:44;;;;;;;5.15;1.60;;;5.30;99.90;;;;;;5036874;28;20599;-81
2023/01/19 13:03:16;;;;;;;8.68;2.13;;;5.50;99.90;;;;;;5036837;28;20048;-81
2023/01/19 13:05:41;;;;;;;8.13;2.10;;;5.60;99.90;;;;;;5036937;28;20099;-81
2023/01/19 13:08:07;;;;;;;5.97;1.50;;;5.10;99.90;;;;;;5036737;28;20084;-82
2023/01/19 13:10:51;;;;;;;6.68;2.13;;;5.10;99.90;;;;;;5037037;28;20098;-81
2023/01/19 13:13:21;;;;;;;6.10;1.38;;;5.00;99.90;;;;;;5035525;28;20045;-82